Woodstock Valley, Connecticut
Current Conditions -  °F | °C
As of 1:52 AM on Thursday 23 Oct 2014 (Local Time) from KIJD Reporting Station
Broken Clouds Broken Clouds  
Wind Chill: 50°   Ceiling: 1800
Heat Index: 50°   Visibility: 10mi
Dew Point: 45°   Wind: 17mph
Humidity: 83%   Direction: 20°NNE
Pressure: 29.73"   Gusts: 28mph
Location:  41.94°N, 72.07°W
Report Text: KIJD 230552Z AUTO 02015G24KT 10SM BKN018 BKN060 BKN120 10/07 A2973 RMK AO2 PK WND 02030/0500 RAE0457 SLP069 P0000 60017 T01000072 10106 20100 58006
Loading
Personal Weather Stations






























Interactive Weather Map
Tropical Storm Tracking
New forecast layout! Learn more

10-Day Weather Forecast

Advertisements
Track Severe Weather on mobile